sensor_id;sensor_type;location;lat;lon;timestamp;temperature;humidity
10662;DHT22;5379;51.034;7.006;2023-05-10T04:31:09;17.30;99.90
10662;DHT22;5379;51.034;7.006;2023-05-10T04:33:37;17.30;99.90
10662;DHT22;5379;51.034;7.006;2023-05-10T04:36:04;17.20;99.90
10662;DHT22;5379;51.034;7.006;2023-05-10T04:38:32;17.30;99.90
10662;DHT22;5379;51.034;7.006;2023-05-10T04:41:05;17.30;99.90
10662;DHT22;5379;51.034;7.006;2023-05-10T04:43:32;17.30;99.90
10662;DHT22;5379;51.034;7.006;2023-05-10T04:45:59;17.20;99.90
10662;DHT22;5379;51.034;7.006;2023-05-10T04:48:28;17.20;99.90
10662;DHT22;5379;51.034;7.006;2023-05-10T04:50:54;17.30;99.90
10662;DHT22;5379;51.034;7.006;2023-05-10T04:53:22;17.40;99.90
10662;DHT22;5379;51.034;7.006;2023-05-10T04:55:48;17.90;99.90
10662;DHT22;5379;51.034;7.006;2023-05-10T04:58:15;18.50;99.90
10662;DHT22;5379;51.034;7.006;2023-05-10T05:00:42;18.80;99.90
10662;DHT22;5379;51.034;7.006;2023-05-10T05:03:09;18.70;99.90
10662;DHT22;5379;51.034;7.006;2023-05-10T05:05:38;18.40;99.90
10662;DHT22;5379;51.034;7.006;2023-05-10T05:08:05;18.40;99.90
10662;DHT22;5379;51.034;7.006;2023-05-10T05:10:32;18.10;99.90
10662;DHT22;5379;51.034;7.006;2023-05-10T05:12:59;18.10;99.90
10662;DHT22;5379;51.034;7.006;2023-05-10T05:15:26;18.10;99.90
10662;DHT22;5379;51.034;7.006;2023-05-10T05:17:53;18.10;99.90
10662;DHT22;5379;51.034;7.006;2023-05-10T05:20:20;18.20;99.90
10662;DHT22;5379;51.034;7.006;2023-05-10T05:22:49;18.20;99.90
10662;DHT22;5379;51.034;7.006;2023-05-10T05:25:16;18.20;99.90
10662;DHT22;5379;51.034;7.006;2023-05-10T05:27:42;18.30;99.90
10662;DHT22;5379;51.034;7.006;2023-05-10T05:30:10;18.70;99.90
10662;DHT22;5379;51.034;7.006;2023-05-10T05:32:38;18.40;99.90
10662;DHT22;5379;51.034;7.006;2023-05-10T05:35:05;18.20;99.90
10662;DHT22;5379;51.034;7.006;2023-05-10T05:37:32;18.20;99.90
10662;DHT22;5379;51.034;7.006;2023-05-10T05:40:01;18.10;99.90
10662;DHT22;5379;51.034;7.006;2023-05-10T05:42:28;18.00;99.90
10662;DHT22;5379;51.034;7.006;2023-05-10T05:44:55;17.90;99.90
10662;DHT22;5379;51.034;7.006;2023-05-10T05:47:22;18.20;99.90
10662;DHT22;5379;51.034;7.006;2023-05-10T05:49:49;18.10;99.90
10662;DHT22;5379;51.034;7.006;2023-05-10T05:52:16;18.50;99.90
10662;DHT22;5379;51.034;7.006;2023-05-10T05:54:43;18.30;99.90
10662;DHT22;5379;51.034;7.006;2023-05-10T05:57:11;18.00;99.90
10662;DHT22;5379;51.034;7.006;2023-05-10T05:59:38;14.70;99.90
10662;DHT22;5379;51.034;7.006;2023-05-10T06:02:07;17.80;99.90
10662;DHT22;5379;51.034;7.006;2023-05-10T06:04:34;18.40;99.90
10662;DHT22;5379;51.034;7.006;2023-05-10T06:07:01;18.30;99.90
10662;DHT22;5379;51.034;7.006;2023-05-10T06:09:28;18.30;99.90
10662;DHT22;5379;51.034;7.006;2023-05-10T06:11:55;18.40;99.90
10662;DHT22;5379;51.034;7.006;2023-05-10T06:14:24;18.40;99.90
10662;DHT22;5379;51.034;7.006;2023-05-10T06:16:51;18.70;99.90
10662;DHT22;5379;51.034;7.006;2023-05-10T06:19:18;18.50;99.90
10662;DHT22;5379;51.034;7.006;2023-05-10T06:21:45;18.40;99.90
10662;DHT22;5379;51.034;7.006;2023-05-10T06:24:12;18.80;99.90
10662;DHT22;5379;51.034;7.006;2023-05-10T06:26:39;18.10;99.90
10662;DHT22;5379;51.034;7.006;2023-05-10T06:29:05;17.90;99.90
10662;DHT22;5379;51.034;7.006;2023-05-10T06:31:34;17.70;99.90
10662;DHT22;5379;51.034;7.006;2023-05-10T06:34:01;17.70;99.90
10662;DHT22;5379;51.034;7.006;2023-05-10T06:36:28;17.70;99.90
10662;DHT22;5379;51.034;7.006;2023-05-10T06:38:55;17.80;99.90
10662;DHT22;5379;51.034;7.006;2023-05-10T06:41:21;17.80;99.90
10662;DHT22;5379;51.034;7.006;2023-05-10T06:43:49;18.30;99.90
10662;DHT22;5379;51.034;7.006;2023-05-10T06:46:16;19.00;99.90
10662;DHT22;5379;51.034;7.006;2023-05-10T06:48:44;18.80;99.90
10662;DHT22;5379;51.034;7.006;2023-05-10T06:51:11;19.10;99.90
10662;DHT22;5379;51.034;7.006;2023-05-10T06:53:38;19.10;99.90
10662;DHT22;5379;51.034;7.006;2023-05-10T06:56:05;18.90;99.90
10662;DHT22;5379;51.034;7.006;2023-05-10T06:58:32;18.80;99.90
10662;DHT22;5379;51.034;7.006;2023-05-10T07:01:02;19.10;99.90
10662;DHT22;5379;51.034;7.006;2023-05-10T07:03:29;19.00;99.90
10662;DHT22;5379;51.034;7.006;2023-05-10T07:06:02;19.80;99.90
10662;DHT22;5379;51.034;7.006;2023-05-10T07:08:30;19.70;99.90
10662;DHT22;5379;51.034;7.006;2023-05-10T07:11:01;19.40;99.90
10662;DHT22;5379;51.034;7.006;2023-05-10T07:13:29;19.90;99.90
10662;DHT22;5379;51.034;7.006;2023-05-10T07:15:56;19.70;99.90
10662;DHT22;5379;51.034;7.006;2023-05-10T07:18:24;19.30;99.90
10662;DHT22;5379;51.034;7.006;2023-05-10T07:20:51;18.80;99.90
10662;DHT22;5379;51.034;7.006;2023-05-10T07:23:19;18.70;99.90
10662;DHT22;5379;51.034;7.006;2023-05-10T07:25:46;18.80;99.90
10662;DHT22;5379;51.034;7.006;2023-05-10T07:28:13;18.60;99.90
10662;DHT22;5379;51.034;7.006;2023-05-10T07:30:40;18.30;99.90
10662;DHT22;5379;51.034;7.006;2023-05-10T07:33:08;18.30;99.90
10662;DHT22;5379;51.034;7.006;2023-05-10T07:35:35;18.20;99.90
10662;DHT22;5379;51.034;7.006;2023-05-10T07:38:02;18.40;99.90
10662;DHT22;5379;51.034;7.006;2023-05-10T07:40:31;18.30;99.90
10662;DHT22;5379;51.034;7.006;2023-05-10T07:42:58;18.40;99.90
10662;DHT22;5379;51.034;7.006;2023-05-10T07:45:25;18.50;99.90
10662;DHT22;5379;51.034;7.006;2023-05-10T07:47:52;18.30;99.90
10662;DHT22;5379;51.034;7.006;2023-05-10T07:50:19;18.30;99.90
10662;DHT22;5379;51.034;7.006;2023-05-10T07:52:46;18.20;99.90
10662;DHT22;5379;51.034;7.006;2023-05-10T07:55:14;18.70;99.90
10662;DHT22;5379;51.034;7.006;2023-05-10T07:57:42;19.10;99.90
10662;DHT22;5379;51.034;7.006;2023-05-10T08:00:12;19.40;99.90
10662;DHT22;5379;51.034;7.006;2023-05-10T08:02:40;19.70;99.90
10662;DHT22;5379;51.034;7.006;2023-05-10T08:05:07;19.20;99.90
10662;DHT22;5379;51.034;7.006;2023-05-10T08:07:35;18.90;99.90
10662;DHT22;5379;51.034;7.006;2023-05-10T08:10:02;18.80;99.90
10662;DHT22;5379;51.034;7.006;2023-05-10T08:12:29;18.50;99.90
10662;DHT22;5379;51.034;7.006;2023-05-10T08:14:57;16.60;99.90
10662;DHT22;5379;51.034;7.006;2023-05-10T08:17:24;18.20;99.90
10662;DHT22;5379;51.034;7.006;2023-05-10T08:19:51;18.20;99.90
10662;DHT22;5379;51.034;7.006;2023-05-10T08:22:18;18.10;99.90
10662;DHT22;5379;51.034;7.006;2023-05-10T08:24:45;18.20;99.90
10662;DHT22;5379;51.034;7.006;2023-05-10T08:27:12;19.20;99.90
10662;DHT22;5379;51.034;7.006;2023-05-10T08:29:39;19.20;99.90
10662;DHT22;5379;51.034;7.006;2023-05-10T08:32:07;19.00;99.90
10662;DHT22;5379;51.034;7.006;2023-05-10T08:34:34;19.00;99.90
10662;DHT22;5379;51.034;7.006;2023-05-10T08:37:01;18.70;99.90
10662;DHT22;5379;51.034;7.006;2023-05-10T08:39:28;18.80;99.90
10662;DHT22;5379;51.034;7.006;2023-05-10T08:41:59;18.90;99.90
10662;DHT22;5379;51.034;7.006;2023-05-10T08:44:27;17.70;99.90
10662;DHT22;5379;51.034;7.006;2023-05-10T08:46:56;19.00;99.90
10662;DHT22;5379;51.034;7.006;2023-05-10T08:49:27;19.80;99.90
10662;DHT22;5379;51.034;7.006;2023-05-10T08:51:57;20.00;99.90
10662;DHT22;5379;51.034;7.006;2023-05-10T08:54:24;20.20;99.90
10662;DHT22;5379;51.034;7.006;2023-05-10T08:56:51;20.50;99.90
10662;DHT22;5379;51.034;7.006;2023-05-10T08:59:18;20.70;99.90
10662;DHT22;5379;51.034;7.006;2023-05-10T09:01:46;20.60;99.90
10662;DHT22;5379;51.034;7.006;2023-05-10T09:04:14;20.30;99.90
10662;DHT22;5379;51.034;7.006;2023-05-10T09:06:53;20.70;99.90
10662;DHT22;5379;51.034;7.006;2023-05-10T09:09:21;21.00;99.90
10662;DHT22;5379;51.034;7.006;2023-05-10T09:11:48;21.50;99.90
10662;DHT22;5379;51.034;7.006;2023-05-10T09:14:16;21.90;99.90
10662;DHT22;5379;51.034;7.006;2023-05-10T09:16:44;22.10;99.90
10662;DHT22;5379;51.034;7.006;2023-05-10T09:19:11;21.90;99.90
10662;DHT22;5379;51.034;7.006;2023-05-10T09:21:38;21.80;99.90
10662;DHT22;5379;51.034;7.006;2023-05-10T09:24:07;21.80;99.90
10662;DHT22;5379;51.034;7.006;2023-05-10T09:26:35;21.30;99.90
10662;DHT22;5379;51.034;7.006;2023-05-10T09:29:02;21.10;99.90
10662;DHT22;5379;51.034;7.006;2023-05-10T09:31:51;20.70;99.90
10662;DHT22;5379;51.034;7.006;2023-05-10T09:34:22;20.50;99.90
10662;DHT22;5379;51.034;7.006;2023-05-10T09:36:56;20.50;99.90
10662;DHT22;5379;51.034;7.006;2023-05-10T09:39:34;20.50;99.90
10662;DHT22;5379;51.034;7.006;2023-05-10T09:42:03;20.90;99.90
10662;DHT22;5379;51.034;7.006;2023-05-10T09:44:31;20.60;99.90
10662;DHT22;5379;51.034;7.006;2023-05-10T09:46:58;20.20;99.90
10662;DHT22;5379;51.034;7.006;2023-05-10T09:49:25;20.10;99.90
10662;DHT22;5379;51.034;7.006;2023-05-10T09:52:00;20.20;99.90
10662;DHT22;5379;51.034;7.006;2023-05-10T09:54:28;20.80;99.90
10662;DHT22;5379;51.034;7.006;2023-05-10T09:56:56;21.50;99.90
10662;DHT22;5379;51.034;7.006;2023-05-10T09:59:25;21.30;99.90
10662;DHT22;5379;51.034;7.006;2023-05-10T10:01:53;21.50;99.90
10662;DHT22;5379;51.034;7.006;2023-05-10T10:04:22;22.00;99.90
10662;DHT22;5379;51.034;7.006;2023-05-10T10:06:59;22.30;99.90
10662;DHT22;5379;51.034;7.006;2023-05-10T10:09:27;22.70;99.90
10662;DHT22;5379;51.034;7.006;2023-05-10T10:11:56;22.30;99.90
10662;DHT22;5379;51.034;7.006;2023-05-10T10:14:23;21.90;99.90
10662;DHT22;5379;51.034;7.006;2023-05-10T10:16:51;22.00;99.90
10662;DHT22;5379;51.034;7.006;2023-05-10T10:19:18;22.10;99.90
10662;DHT22;5379;51.034;7.006;2023-05-10T10:21:46;21.50;99.90
10662;DHT22;5379;51.034;7.006;2023-05-10T10:24:13;21.40;99.90
10662;DHT22;5379;51.034;7.006;2023-05-10T10:26:41;21.40;99.90
10662;DHT22;5379;51.034;7.006;2023-05-10T10:29:20;20.70;99.90
10662;DHT22;5379;51.034;7.006;2023-05-10T10:31:59;20.30;99.90
10662;DHT22;5379;51.034;7.006;2023-05-10T10:34:28;19.70;99.90
10662;DHT22;5379;51.034;7.006;2023-05-10T10:36:57;20.00;99.90
10662;DHT22;5379;51.034;7.006;2023-05-10T10:39:24;20.20;99.90
10662;DHT22;5379;51.034;7.006;2023-05-10T10:41:53;19.60;99.90
10662;DHT22;5379;51.034;7.006;2023-05-10T10:44:34;19.90;99.90
10662;DHT22;5379;51.034;7.006;2023-05-10T10:47:04;20.00;99.90
10662;DHT22;5379;51.034;7.006;2023-05-10T10:49:37;20.80;99.90
10662;DHT22;5379;51.034;7.006;2023-05-10T10:52:15;21.40;99.90
10662;DHT22;5379;51.034;7.006;2023-05-10T10:54:50;21.40;99.90
10662;DHT22;5379;51.034;7.006;2023-05-10T10:57:19;20.90;99.90
10662;DHT22;5379;51.034;7.006;2023-05-10T10:59:48;20.90;99.90
10662;DHT22;5379;51.034;7.006;2023-05-10T11:02:34;21.50;99.90
10662;DHT22;5379;51.034;7.006;2023-05-10T11:08:17;21.10;99.90
10662;DHT22;5379;51.034;7.006;2023-05-10T11:11:03;21.00;99.90
10662;DHT22;5379;51.034;7.006;2023-05-10T11:13:34;21.10;99.90
10662;DHT22;5379;51.034;7.006;2023-05-10T11:16:13;21.00;99.90
10662;DHT22;5379;51.034;7.006;2023-05-10T11:18:40;20.90;99.90
10662;DHT22;5379;51.034;7.006;2023-05-10T11:21:09;21.10;99.90
10662;DHT22;5379;51.034;7.006;2023-05-10T11:23:49;21.50;99.90
10662;DHT22;5379;51.034;7.006;2023-05-10T11:26:16;21.80;99.90
10662;DHT22;5379;51.034;7.006;2023-05-10T11:28:43;22.00;99.90
10662;DHT22;5379;51.034;7.006;2023-05-10T11:31:13;21.80;99.90
10662;DHT22;5379;51.034;7.006;2023-05-10T11:33:43;21.20;99.90
10662;DHT22;5379;51.034;7.006;2023-05-10T11:36:11;21.20;99.90
10662;DHT22;5379;51.034;7.006;2023-05-10T11:38:38;21.00;99.90
10662;DHT22;5379;51.034;7.006;2023-05-10T11:41:05;21.10;99.90
10662;DHT22;5379;51.034;7.006;2023-05-10T11:43:34;21.20;99.90
10662;DHT22;5379;51.034;7.006;2023-05-10T11:46:04;20.60;99.90
10662;DHT22;5379;51.034;7.006;2023-05-10T11:48:32;20.80;99.90
10662;DHT22;5379;51.034;7.006;2023-05-10T11:51:00;20.80;99.90
10662;DHT22;5379;51.034;7.006;2023-05-10T11:53:27;21.10;99.90
10662;DHT22;5379;51.034;7.006;2023-05-10T11:55:54;21.40;99.90
10662;DHT22;5379;51.034;7.006;2023-05-10T11:58:24;21.20;99.90
10662;DHT22;5379;51.034;7.006;2023-05-10T12:00:51;21.50;99.90
10662;DHT22;5379;51.034;7.006;2023-05-10T12:03:18;21.90;99.90
10662;DHT22;5379;51.034;7.006;2023-05-10T12:05:46;21.90;99.90
10662;DHT22;5379;51.034;7.006;2023-05-10T12:08:15;22.10;99.90
10662;DHT22;5379;51.034;7.006;2023-05-10T12:10:42;21.90;99.90
10662;DHT22;5379;51.034;7.006;2023-05-10T12:13:12;22.30;99.90
10662;DHT22;5379;51.034;7.006;2023-05-10T12:15:41;22.30;99.90
10662;DHT22;5379;51.034;7.006;2023-05-10T12:18:09;22.30;99.90
10662;DHT22;5379;51.034;7.006;2023-05-10T12:20:37;22.40;99.90
10662;DHT22;5379;51.034;7.006;2023-05-10T12:23:07;22.30;99.90
10662;DHT22;5379;51.034;7.006;2023-05-10T12:25:37;22.20;99.90
10662;DHT22;5379;51.034;7.006;2023-05-10T12:28:05;21.80;99.90
10662;DHT22;5379;51.034;7.006;2023-05-10T12:30:34;22.40;99.90
10662;DHT22;5379;51.034;7.006;2023-05-10T12:33:02;22.60;99.90
10662;DHT22;5379;51.034;7.006;2023-05-10T12:35:32;22.00;99.90
10662;DHT22;5379;51.034;7.006;2023-05-10T12:37:59;21.80;99.90
10662;DHT22;5379;51.034;7.006;2023-05-10T12:40:27;22.20;99.90
10662;DHT22;5379;51.034;7.006;2023-05-10T12:42:54;22.10;99.90
10662;DHT22;5379;51.034;7.006;2023-05-10T12:45:21;22.40;99.90
10662;DHT22;5379;51.034;7.006;2023-05-10T12:47:48;22.40;99.90
10662;DHT22;5379;51.034;7.006;2023-05-10T12:50:15;22.00;99.90
10662;DHT22;5379;51.034;7.006;2023-05-10T12:55:10;21.80;99.90
10662;DHT22;5379;51.034;7.006;2023-05-10T12:57:39;22.20;99.90
10662;DHT22;5379;51.034;7.006;2023-05-10T13:00:08;22.70;99.90
10662;DHT22;5379;51.034;7.006;2023-05-10T13:02:35;22.90;99.90
10662;DHT22;5379;51.034;7.006;2023-05-10T13:05:02;22.90;99.90
10662;DHT22;5379;51.034;7.006;2023-05-10T13:07:29;22.30;99.90
10662;DHT22;5379;51.034;7.006;2023-05-10T13:09:56;22.20;99.90
10662;DHT22;5379;51.034;7.006;2023-05-10T13:12:23;22.20;99.90
10662;DHT22;5379;51.034;7.006;2023-05-10T13:14:51;22.60;99.90
10662;DHT22;5379;51.034;7.006;2023-05-10T13:17:18;22.50;99.90
10662;DHT22;5379;51.034;7.006;2023-05-10T13:19:45;22.10;99.90
10662;DHT22;5379;51.034;7.006;2023-05-10T13:22:12;22.30;99.90
10662;DHT22;5379;51.034;7.006;2023-05-10T13:24:39;22.50;99.90
10662;DHT22;5379;51.034;7.006;2023-05-10T13:27:06;22.70;99.90
10662;DHT22;5379;51.034;7.006;2023-05-10T13:29:33;22.80;99.90
10662;DHT22;5379;51.034;7.006;2023-05-10T13:32:01;22.70;99.90
10662;DHT22;5379;51.034;7.006;2023-05-10T13:34:28;22.70;99.90
10662;DHT22;5379;51.034;7.006;2023-05-10T13:36:55;22.50;99.90
10662;DHT22;5379;51.034;7.006;2023-05-10T13:39:22;22.60;99.90
10662;DHT22;5379;51.034;7.006;2023-05-10T13:41:49;22.70;99.90
10662;DHT22;5379;51.034;7.006;2023-05-10T13:44:16;22.60;99.90
10662;DHT22;5379;51.034;7.006;2023-05-10T13:46:43;22.70;99.90
10662;DHT22;5379;51.034;7.006;2023-05-10T13:49:12;22.90;99.90
10662;DHT22;5379;51.034;7.006;2023-05-10T13:51:39;22.80;99.90
10662;DHT22;5379;51.034;7.006;2023-05-10T13:54:06;23.00;99.90
10662;DHT22;5379;51.034;7.006;2023-05-10T13:56:32;22.60;99.90
10662;DHT22;5379;51.034;7.006;2023-05-10T13:59:00;23.00;99.90
10662;DHT22;5379;51.034;7.006;2023-05-10T14:01:27;22.90;99.90
10662;DHT22;5379;51.034;7.006;2023-05-10T14:03:54;22.80;99.90
10662;DHT22;5379;51.034;7.006;2023-05-10T14:06:22;22.70;99.90
10662;DHT22;5379;51.034;7.006;2023-05-10T14:08:49;22.60;99.90
10662;DHT22;5379;51.034;7.006;2023-05-10T14:11:16;22.80;99.90
10662;DHT22;5379;51.034;7.006;2023-05-10T14:13:43;22.70;99.90
10662;DHT22;5379;51.034;7.006;2023-05-10T14:16:10;22.70;99.90
10662;DHT22;5379;51.034;7.006;2023-05-10T14:18:37;22.30;99.90
10662;DHT22;5379;51.034;7.006;2023-05-10T14:21:04;22.40;99.90
10662;DHT22;5379;51.034;7.006;2023-05-10T14:23:33;22.90;99.90
10662;DHT22;5379;51.034;7.006;2023-05-10T14:25:59;22.40;99.90
10662;DHT22;5379;51.034;7.006;2023-05-10T14:28:27;22.30;99.90
10662;DHT22;5379;51.034;7.006;2023-05-10T14:30:54;22.80;99.90
10662;DHT22;5379;51.034;7.006;2023-05-10T14:33:21;22.90;99.90
10662;DHT22;5379;51.034;7.006;2023-05-10T14:35:48;23.10;99.90
10662;DHT22;5379;51.034;7.006;2023-05-10T14:40:44;22.60;99.90
10662;DHT22;5379;51.034;7.006;2023-05-10T14:43:10;21.90;99.90
10662;DHT22;5379;51.034;7.006;2023-05-10T14:45:37;21.50;99.90
10662;DHT22;5379;51.034;7.006;2023-05-10T14:48:04;20.60;99.90
10662;DHT22;5379;51.034;7.006;2023-05-10T14:50:31;20.00;99.90
10662;DHT22;5379;51.034;7.006;2023-05-10T14:52:58;20.00;99.90
10662;DHT22;5379;51.034;7.006;2023-05-10T14:55:25;20.20;99.90
10662;DHT22;5379;51.034;7.006;2023-05-10T14:57:54;20.00;99.90
10662;DHT22;5379;51.034;7.006;2023-05-10T15:00:21;20.10;99.90
10662;DHT22;5379;51.034;7.006;2023-05-10T15:02:48;19.90;99.90
10662;DHT22;5379;51.034;7.006;2023-05-10T15:05:15;20.30;99.90
10662;DHT22;5379;51.034;7.006;2023-05-10T15:07:42;21.20;99.90
10662;DHT22;5379;51.034;7.006;2023-05-10T15:10:09;20.80;99.90
10662;DHT22;5379;51.034;7.006;2023-05-10T15:12:37;20.50;99.90
10662;DHT22;5379;51.034;7.006;2023-05-10T15:15:06;20.40;99.90
10662;DHT22;5379;51.034;7.006;2023-05-10T15:17:34;20.90;99.90
10662;DHT22;5379;51.034;7.006;2023-05-10T15:20:01;20.50;99.90
10662;DHT22;5379;51.034;7.006;2023-05-10T15:22:29;20.30;99.90
10662;DHT22;5379;51.034;7.006;2023-05-10T15:24:57;20.10;99.90
10662;DHT22;5379;51.034;7.006;2023-05-10T15:27:24;20.30;99.90
10662;DHT22;5379;51.034;7.006;2023-05-10T15:29:51;20.60;99.90
10662;DHT22;5379;51.034;7.006;2023-05-10T15:32:19;20.40;99.90
10662;DHT22;5379;51.034;7.006;2023-05-10T15:34:46;20.00;99.90
10662;DHT22;5379;51.034;7.006;2023-05-10T15:37:13;19.60;99.90
10662;DHT22;5379;51.034;7.006;2023-05-10T15:39:40;19.70;99.90
10662;DHT22;5379;51.034;7.006;2023-05-10T15:42:07;20.40;99.90
10662;DHT22;5379;51.034;7.006;2023-05-10T15:44:34;20.40;99.90
10662;DHT22;5379;51.034;7.006;2023-05-10T15:47:03;20.20;99.90
10662;DHT22;5379;51.034;7.006;2023-05-10T15:49:32;20.20;99.90
10662;DHT22;5379;51.034;7.006;2023-05-10T15:51:59;21.10;99.90
10662;DHT22;5379;51.034;7.006;2023-05-10T15:54:26;21.00;99.90
10662;DHT22;5379;51.034;7.006;2023-05-10T15:56:53;20.80;99.90
10662;DHT22;5379;51.034;7.006;2023-05-10T15:59:20;20.80;99.90
10662;DHT22;5379;51.034;7.006;2023-05-10T16:01:47;20.80;99.90
10662;DHT22;5379;51.034;7.006;2023-05-10T16:04:17;20.70;99.90
10662;DHT22;5379;51.034;7.006;2023-05-10T16:06:45;20.30;99.90
10662;DHT22;5379;51.034;7.006;2023-05-10T16:09:12;20.30;99.90
10662;DHT22;5379;51.034;7.006;2023-05-10T16:11:41;20.10;99.90
10662;DHT22;5379;51.034;7.006;2023-05-10T16:14:09;19.90;99.90
10662;DHT22;5379;51.034;7.006;2023-05-10T16:16:35;19.90;99.90
10662;DHT22;5379;51.034;7.006;2023-05-10T16:19:03;19.70;99.90
10662;DHT22;5379;51.034;7.006;2023-05-10T16:21:30;19.20;99.90
10662;DHT22;5379;51.034;7.006;2023-05-10T16:23:59;19.20;99.90
10662;DHT22;5379;51.034;7.006;2023-05-10T16:26:26;19.20;99.90
10662;DHT22;5379;51.034;7.006;2023-05-10T16:28:53;19.00;99.90
10662;DHT22;5379;51.034;7.006;2023-05-10T16:31:20;18.90;99.90
10662;DHT22;5379;51.034;7.006;2023-05-10T16:33:47;19.00;99.90
10662;DHT22;5379;51.034;7.006;2023-05-10T16:36:14;19.40;99.90
10662;DHT22;5379;51.034;7.006;2023-05-10T16:38:41;19.40;99.90
10662;DHT22;5379;51.034;7.006;2023-05-10T16:41:09;19.60;99.90
10662;DHT22;5379;51.034;7.006;2023-05-10T16:46:09;20.70;99.90
10662;DHT22;5379;51.034;7.006;2023-05-10T16:48:36;20.70;99.90
10662;DHT22;5379;51.034;7.006;2023-05-10T16:51:03;20.70;99.90
10662;DHT22;5379;51.034;7.006;2023-05-10T16:53:30;20.70;99.90
10662;DHT22;5379;51.034;7.006;2023-05-10T16:55:57;20.70;99.90
10662;DHT22;5379;51.034;7.006;2023-05-10T16:58:25;20.70;99.90
10662;DHT22;5379;51.034;7.006;2023-05-10T17:00:52;20.40;99.90
10662;DHT22;5379;51.034;7.006;2023-05-10T17:03:19;20.30;99.90
10662;DHT22;5379;51.034;7.006;2023-05-10T17:05:46;20.30;99.90
10662;DHT22;5379;51.034;7.006;2023-05-10T17:08:15;20.30;99.90
10662;DHT22;5379;51.034;7.006;2023-05-10T17:10:42;20.30;99.90
10662;DHT22;5379;51.034;7.006;2023-05-10T17:13:09;20.60;99.90
10662;DHT22;5379;51.034;7.006;2023-05-10T17:18:05;20.80;99.90
10662;DHT22;5379;51.034;7.006;2023-05-10T17:20:34;20.60;99.90
10662;DHT22;5379;51.034;7.006;2023-05-10T17:23:02;20.50;99.90
10662;DHT22;5379;51.034;7.006;2023-05-10T17:25:29;20.50;99.90
10662;DHT22;5379;51.034;7.006;2023-05-10T17:27:59;20.20;99.90
10662;DHT22;5379;51.034;7.006;2023-05-10T17:30:26;20.20;99.90
10662;DHT22;5379;51.034;7.006;2023-05-10T17:32:57;20.20;99.90
10662;DHT22;5379;51.034;7.006;2023-05-10T17:35:24;20.10;99.90
10662;DHT22;5379;51.034;7.006;2023-05-10T17:37:51;19.70;99.90
10662;DHT22;5379;51.034;7.006;2023-05-10T17:40:18;19.70;99.90
10662;DHT22;5379;51.034;7.006;2023-05-10T17:42:45;19.60;99.90
10662;DHT22;5379;51.034;7.006;2023-05-10T17:45:12;20.00;99.90
10662;DHT22;5379;51.034;7.006;2023-05-10T17:47:40;19.40;99.90
10662;DHT22;5379;51.034;7.006;2023-05-10T17:50:09;19.40;99.90
10662;DHT22;5379;51.034;7.006;2023-05-10T17:55:04;19.40;99.90
10662;DHT22;5379;51.034;7.006;2023-05-10T17:57:31;19.30;99.90
10662;DHT22;5379;51.034;7.006;2023-05-10T17:59:58;19.30;99.90
10662;DHT22;5379;51.034;7.006;2023-05-10T18:02:26;19.20;99.90
10662;DHT22;5379;51.034;7.006;2023-05-10T18:04:53;18.80;99.90
10662;DHT22;5379;51.034;7.006;2023-05-10T18:07:21;19.10;99.90
10662;DHT22;5379;51.034;7.006;2023-05-10T18:09:50;19.10;99.90
10662;DHT22;5379;51.034;7.006;2023-05-10T18:12:17;18.80;99.90
10662;DHT22;5379;51.034;7.006;2023-05-10T18:14:44;18.40;99.90
10662;DHT22;5379;51.034;7.006;2023-05-10T18:17:10;18.30;99.90
10662;DHT22;5379;51.034;7.006;2023-05-10T18:19:39;18.00;99.90
10662;DHT22;5379;51.034;7.006;2023-05-10T18:22:06;18.00;99.90
10662;DHT22;5379;51.034;7.006;2023-05-10T18:24:34;18.20;99.90
10662;DHT22;5379;51.034;7.006;2023-05-10T18:27:01;18.20;99.90
10662;DHT22;5379;51.034;7.006;2023-05-10T18:29:28;18.20;99.90
10662;DHT22;5379;51.034;7.006;2023-05-10T18:31:55;18.00;99.90
10662;DHT22;5379;51.034;7.006;2023-05-10T18:34:22;18.10;99.90
10662;DHT22;5379;51.034;7.006;2023-05-10T18:36:49;17.90;99.90
10662;DHT22;5379;51.034;7.006;2023-05-10T18:39:17;17.70;99.90
10662;DHT22;5379;51.034;7.006;2023-05-10T18:41:45;17.60;99.90
10662;DHT22;5379;51.034;7.006;2023-05-10T18:44:12;17.50;99.90
10662;DHT22;5379;51.034;7.006;2023-05-10T18:46:39;17.40;99.90
10662;DHT22;5379;51.034;7.006;2023-05-10T18:49:06;17.40;99.90
10662;DHT22;5379;51.034;7.006;2023-05-10T18:54:01;17.40;99.90
10662;DHT22;5379;51.034;7.006;2023-05-10T18:56:28;17.40;99.90
10662;DHT22;5379;51.034;7.006;2023-05-10T18:58:56;17.40;99.90
10662;DHT22;5379;51.034;7.006;2023-05-10T19:01:23;17.30;99.90
10662;DHT22;5379;51.034;7.006;2023-05-10T19:03:50;17.30;99.90
10662;DHT22;5379;51.034;7.006;2023-05-10T19:06:17;17.40;99.90
10662;DHT22;5379;51.034;7.006;2023-05-10T19:08:44;17.50;99.90
10662;DHT22;5379;51.034;7.006;2023-05-10T19:11:11;17.50;99.90
10662;DHT22;5379;51.034;7.006;2023-05-10T19:13:38;17.40;99.90
10662;DHT22;5379;51.034;7.006;2023-05-10T19:16:10;17.30;99.90
10662;DHT22;5379;51.034;7.006;2023-05-10T19:18:37;17.30;99.90
10662;DHT22;5379;51.034;7.006;2023-05-10T19:21:05;17.40;99.90
10662;DHT22;5379;51.034;7.006;2023-05-10T19:23:33;17.50;99.90
10662;DHT22;5379;51.034;7.006;2023-05-10T19:26:00;17.70;99.90
10662;DHT22;5379;51.034;7.006;2023-05-10T19:28:27;17.80;99.90
10662;DHT22;5379;51.034;7.006;2023-05-10T19:30:55;18.00;99.90
10662;DHT22;5379;51.034;7.006;2023-05-10T19:33:23;19.10;99.90
10662;DHT22;5379;51.034;7.006;2023-05-10T19:35:51;20.30;99.90
10662;DHT22;5379;51.034;7.006;2023-05-10T19:38:21;21.10;99.90
10662;DHT22;5379;51.034;7.006;2023-05-10T19:40:48;21.60;99.90
10662;DHT22;5379;51.034;7.006;2023-05-10T19:43:15;22.30;99.90
10662;DHT22;5379;51.034;7.006;2023-05-10T19:45:42;22.70;99.90
10662;DHT22;5379;51.034;7.006;2023-05-10T19:50:38;22.40;99.90
10662;DHT22;5379;51.034;7.006;2023-05-10T19:53:05;22.30;99.90
10662;DHT22;5379;51.034;7.006;2023-05-10T19:55:32;19.10;99.90
10662;DHT22;5379;51.034;7.006;2023-05-10T19:58:01;20.20;99.90
10662;DHT22;5379;51.034;7.006;2023-05-10T20:00:29;18.60;99.90
10662;DHT22;5379;51.034;7.006;2023-05-10T20:02:56;18.60;99.90
10662;DHT22;5379;51.034;7.006;2023-05-10T20:05:26;18.00;99.90
10662;DHT22;5379;51.034;7.006;2023-05-10T20:07:54;18.00;99.90
10662;DHT22;5379;51.034;7.006;2023-05-10T20:10:21;18.00;99.90
10662;DHT22;5379;51.034;7.006;2023-05-10T20:12:49;17.60;99.90
10662;DHT22;5379;51.034;7.006;2023-05-10T20:15:18;17.60;99.90
10662;DHT22;5379;51.034;7.006;2023-05-10T20:17:45;17.50;99.90
10662;DHT22;5379;51.034;7.006;2023-05-10T20:20:13;17.40;99.90
10662;DHT22;5379;51.034;7.006;2023-05-10T20:25:10;17.50;99.90
10662;DHT22;5379;51.034;7.006;2023-05-10T20:27:37;17.90;99.90
10662;DHT22;5379;51.034;7.006;2023-05-10T20:30:05;18.90;99.90
10662;DHT22;5379;51.034;7.006;2023-05-10T20:32:33;18.80;99.90
10662;DHT22;5379;51.034;7.006;2023-05-10T20:35:01;18.30;99.90
10662;DHT22;5379;51.034;7.006;2023-05-10T20:37:28;18.00;99.90
10662;DHT22;5379;51.034;7.006;2023-05-10T20:39:55;17.80;99.90
10662;DHT22;5379;51.034;7.006;2023-05-10T20:42:24;17.80;99.90